Time;durP1;ratioP1;P1;durP2;ratioP2;P2;SDS_P1;SDS_P2;PMS_P1;PMS_P2;Temp;Humidity;BMP_temperature;BMP_pressure;BME280_temperature;BME280_humidity;BME280_pressure;Samples;Min_cycle;Max_cycle;Signal;HPM_P1;HPM_P2
2022/04/26 03:42:34;;;;;;;19.20;15.90;;;;;;;5.76;79.49;99178.52;447976;1268;142012;-62
2022/04/26 03:52:41;;;;;;;19.00;15.20;;;;;;;5.79;79.63;99191.26;447028;1269;142620;-62
2022/04/26 04:02:47;;;;;;;20.90;16.60;;;;;;;5.89;79.52;99194.20;447898;1268;141725;-61
2022/04/26 04:12:53;;;;;;;20.60;15.40;;;;;;;5.91;79.39;99204.17;447171;1268;142089;-61
2022/04/26 04:22:59;;;;;;;17.10;13.70;;;;;;;6.00;79.47;99216.42;447985;1268;142025;-61
2022/04/26 04:33:05;;;;;;;20.80;14.10;;;;;;;6.03;79.25;99231.77;447891;1267;143595;-62
2022/04/26 04:43:11;;;;;;;16.70;14.40;;;;;;;6.08;79.08;99237.26;447294;1268;142522;-61
2022/04/26 04:53:19;;;;;;;16.90;13.90;;;;;;;6.09;79.04;99249.17;448054;1267;143502;-61
2022/04/26 05:03:25;;;;;;;22.30;16.10;;;;;;;6.11;79.07;99261.94;448064;1266;142264;-62
2022/04/26 05:13:31;;;;;;;19.50;15.10;;;;;;;6.15;78.94;99270.61;447283;1267;143320;-62
2022/04/26 05:34:00;;;;;;;20.00;14.00;;;;;;;6.45;79.02;99286.29;447173;1268;143943;-61
2022/04/26 05:44:10;;;;;;;19.60;14.80;;;;;;;6.64;78.97;99293.86;447742;1268;143051;-66
2022/04/26 05:54:16;;;;;;;18.60;13.90;;;;;;;6.68;78.94;99302.86;448038;1267;142402;-61
2022/04/26 06:04:23;;;;;;;17.10;13.40;;;;;;;6.75;78.76;99313.27;442551;1267;143992;-60
2022/04/26 06:14:29;;;;;;;19.10;14.00;;;;;;;6.74;78.62;99317.17;448079;1268;142570;-60
2022/04/26 06:24:34;;;;;;;20.60;16.70;;;;;;;6.74;78.88;99321.35;445609;1269;144770;-61
2022/04/26 06:34:40;;;;;;;19.70;15.90;;;;;;;7.09;78.82;99321.23;446971;1267;143307;-60
2022/04/26 06:44:46;;;;;;;17.20;15.30;;;;;;;7.94;78.27;99318.82;444933;1267;142962;-60
2022/04/26 06:54:52;;;;;;;17.70;14.30;;;;;;;8.50;77.11;99325.40;446645;1269;143103;-61
2022/04/26 07:04:58;;;;;;;13.90;12.20;;;;;;;8.55;76.28;99333.76;447940;1267;144097;-61
2022/04/26 07:15:05;;;;;;;13.80;11.60;;;;;;;8.96;75.18;99337.66;441097;1268;142443;-63
2022/04/26 07:25:12;;;;;;;13.30;12.00;;;;;;;8.58;74.66;99350.02;438972;1267;143385;-62
2022/04/26 07:35:18;;;;;;;12.10;10.40;;;;;;;8.27;75.12;99357.56;448034;1267;142697;-65
2022/04/26 07:45:23;;;;;;;10.70;9.60;;;;;;;8.48;74.61;99367.50;441752;1269;142093;-60
2022/04/26 07:55:30;;;;;;;11.30;10.00;;;;;;;8.85;73.97;99376.52;441518;1270;143984;-63
2022/04/26 08:05:36;;;;;;;13.50;9.60;;;;;;;8.66;73.33;99388.27;448046;1267;142035;-63
2022/04/26 08:15:42;;;;;;;10.10;8.90;;;;;;;8.29;73.27;99406.08;445298;1267;141903;-61
2022/04/26 08:36:12;;;;;;;8.90;8.10;;;;;;;9.23;71.92;99421.40;433486;1268;143150;-66
2022/04/26 08:46:18;;;;;;;6.80;6.10;;;;;;;9.33;71.49;99429.84;435336;1267;141777;-60
2022/04/26 08:56:24;;;;;;;10.40;8.60;;;;;;;9.22;70.84;99436.64;440924;1268;141110;-64
2022/04/26 09:06:40;;;;;;;6.50;5.40;;;;;;;9.42;71.04;99439.11;435688;1267;141290;-64
2022/04/26 09:17:05;;;;;;;8.00;7.30;;;;;;;10.41;69.89;99442.99;443698;1267;141893;-61
2022/04/26 09:27:18;;;;;;;10.10;9.10;;;;;;;10.70;68.17;99458.69;448041;1267;142951;-62
2022/04/26 09:37:24;;;;;;;9.90;7.90;;;;;;;10.19;67.93;99464.73;436279;1267;142121;-64
2022/04/26 09:47:39;;;;;;;9.10;7.90;;;;;;;10.14;67.74;99464.35;444121;1270;142325;-61
2022/04/26 09:57:47;;;;;;;9.70;8.40;;;;;;;9.65;67.99;99472.09;448070;1267;141744;-63
2022/04/26 10:07:54;;;;;;;9.40;8.50;;;;;;;9.48;68.16;99477.55;448109;1267;141432;-67
2022/04/26 10:18:00;;;;;;;7.90;7.10;;;;;;;9.63;68.52;99481.50;439237;1267;142252;-62
2022/04/26 10:28:26;;;;;;;10.10;7.40;;;;;;;10.49;67.68;99482.79;437947;1266;141989;-69
2022/04/26 10:38:32;;;;;;;11.00;6.00;;;;;;;11.74;66.09;99484.70;448071;1267;142187;-71
2022/04/26 10:48:38;;;;;;;12.70;10.00;;;;;;;12.17;64.03;99482.61;436357;1268;146373;-62
2022/04/26 10:58:53;;;;;;;9.00;8.00;;;;;;;12.21;63.99;99482.17;447263;1266;143564;-73
2022/04/26 11:09:09;;;;;;;9.60;6.90;;;;;;;12.20;63.30;99482.19;442245;1267;143028;-69
2022/04/26 11:19:16;;;;;;;6.90;6.20;;;;;;;12.20;62.83;99488.84;433363;1267;142948;-64
2022/04/26 11:29:27;;;;;;;13.10;7.90;;;;;;;12.56;61.98;99491.55;444050;1267;141841;-67
2022/04/26 11:39:39;;;;;;;5.80;5.30;;;;;;;12.75;61.44;99494.20;447733;1268;141864;-74
2022/04/26 11:49:45;;;;;;;7.00;6.30;;;;;;;12.41;60.68;99492.58;444519;1267;141689;-68
2022/04/26 11:59:51;;;;;;;6.20;5.60;;;;;;;11.69;61.00;99497.52;447909;1267;252860;-67
2022/04/26 12:09:57;;;;;;;10.80;6.80;;;;;;;11.48;60.98;99496.55;447393;1266;142382;-62
2022/04/26 12:20:11;;;;;;;6.50;4.70;;;;;;;11.48;60.99;99494.04;447788;1269;141102;-64
2022/04/26 12:30:17;;;;;;;7.20;4.60;;;;;;;11.40;60.43;99493.42;448119;1267;141480;-68
2022/04/26 12:40:23;;;;;;;20.30;7.70;;;;;;;11.33;60.22;99497.37;443621;1267;145188;-65
2022/04/26 12:50:31;;;;;;;5.20;4.10;;;;;;;11.41;60.31;99496.30;434409;1266;141404;-64
2022/04/26 13:00:40;;;;;;;13.50;5.60;;;;;;;11.40;59.82;99494.76;447908;1267;144734;-63
2022/04/26 13:10:47;;;;;;;7.80;4.10;;;;;;;11.44;59.71;99493.30;447754;1265;141354;-62
2022/04/26 13:20:54;;;;;;;4.90;4.40;;;;;;;11.60;59.13;99489.00;447957;1267;141172;-61
2022/04/26 13:31:00;;;;;;;5.90;4.10;;;;;;;11.57;58.71;99486.77;447209;1267;141309;-59
2022/04/26 13:41:06;;;;;;;25.80;7.70;;;;;;;11.29;58.91;99489.55;448050;1266;142228;-58
2022/04/26 13:51:12;;;;;;;6.30;4.30;;;;;;;11.07;59.18;99491.09;447923;1267;142070;-61
2022/04/26 14:01:17;;;;;;;10.30;4.30;;;;;;;10.93;59.34;99495.47;447274;1267;142409;-60
2022/04/26 14:11:24;;;;;;;8.60;4.10;;;;;;;10.98;59.44;99496.23;448092;1267;141806;-61
2022/04/26 14:21:48;;;;;;;13.40;6.50;;;;;;;10.92;59.66;99496.77;447960;1267;143677;-60
2022/04/26 14:31:54;;;;;;;4.80;4.10;;;;;;;10.95;59.97;99490.58;448001;1267;141830;-60
2022/04/26 14:42:00;;;;;;;5.50;4.30;;;;;;;11.33;59.28;99499.10;447914;1266;141020;-60
2022/04/26 14:52:07;;;;;;;5.00;4.20;;;;;;;11.67;58.85;99497.48;447134;1267;141581;-60
2022/04/26 15:02:38;;;;;;;10.30;4.10;;;;;;;11.84;58.28;99503.48;447928;1266;141568;-60
2022/04/26 15:23:08;;;;;;;7.20;5.70;;;;;;;11.97;58.42;99507.99;431295;1268;141762;-59
2022/04/26 15:33:14;;;;;;;6.00;5.40;;;;;;;12.09;58.14;99503.16;445345;1267;141724;-60
2022/04/26 15:43:20;;;;;;;6.30;4.70;;;;;;;12.06;58.01;99504.42;447335;1267;145294;-60
2022/04/26 15:53:26;;;;;;;5.60;4.40;;;;;;;12.01;57.99;99500.21;437988;1267;140751;-59
2022/04/26 16:03:31;;;;;;;5.70;4.50;;;;;;;11.89;58.18;99504.91;448126;1268;141812;-60
2022/04/26 16:24:01;;;;;;;5.40;4.40;;;;;;;11.66;58.19;99501.42;448142;1268;141890;-59
2022/04/26 16:34:07;;;;;;;6.50;4.70;;;;;;;11.47;58.61;99501.46;447108;1269;145000;-60
2022/04/26 16:44:13;;;;;;;8.90;6.50;;;;;;;11.31;58.72;99503.47;448123;1267;142460;-60
2022/04/26 16:54:19;;;;;;;7.30;4.60;;;;;;;11.10;59.07;99507.30;448145;1267;142241;-60
2022/04/26 17:04:26;;;;;;;8.50;5.20;;;;;;;10.90;59.26;99512.34;444989;1267;141985;-59
2022/04/26 17:14:32;;;;;;;7.60;4.90;;;;;;;10.84;59.80;99517.31;448091;1267;142099;-60
2022/04/26 17:35:02;;;;;;;11.50;7.30;;;;;;;10.58;59.85;99526.66;448032;1267;142219;-60
2022/04/26 17:45:10;;;;;;;12.90;8.10;;;;;;;10.30;60.29;99544.14;444324;1270;141545;-60
2022/04/26 18:05:40;;;;;;;15.20;10.00;;;;;;;9.64;61.89;99571.46;440772;1268;143000;-58
2022/04/26 18:15:46;;;;;;;20.70;12.20;;;;;;;9.44;62.58;99587.50;435893;1268;143157;-59
2022/04/26 18:36:18;;;;;;;38.20;21.50;;;;;;;8.95;64.43;99620.20;447948;1267;189759;-60
2022/04/26 18:46:26;;;;;;;28.50;20.60;;;;;;;8.76;64.88;99623.48;447274;1268;143142;-60
2022/04/26 18:56:32;;;;;;;34.20;21.50;;;;;;;8.56;65.71;99638.04;447893;1268;145438;-58
2022/04/26 19:06:38;;;;;;;46.20;26.80;;;;;;;8.35;66.43;99650.67;447674;1270;143084;-58
2022/04/26 19:16:44;;;;;;;48.40;32.10;;;;;;;8.16;66.83;99662.24;447107;1267;143986;-58
2022/04/26 19:26:50;;;;;;;58.70;32.20;;;;;;;7.99;67.54;99668.57;448019;1268;142551;-63
2022/04/26 19:36:56;;;;;;;52.90;35.20;;;;;;;7.78;68.02;99672.59;447132;1268;143021;-60
2022/04/26 19:47:02;;;;;;;59.80;38.50;;;;;;;7.72;68.47;99677.61;448036;1267;142693;-59
2022/04/26 19:57:08;;;;;;;59.50;38.50;;;;;;;7.60;68.81;99678.73;447997;1268;143335;-59
2022/04/26 20:07:14;;;;;;;60.70;39.10;;;;;;;7.48;69.52;99686.48;446983;1269;143238;-58
2022/04/26 20:17:20;;;;;;;61.90;37.50;;;;;;;7.40;69.82;99692.42;447917;1268;145192;-59
2022/04/26 20:37:54;;;;;;;66.50;42.30;;;;;;;7.21;70.32;99689.86;447184;1269;142040;-64
2022/04/26 20:48:02;;;;;;;70.10;40.80;;;;;;;7.02;70.98;99692.84;447225;1271;143466;-59
2022/04/26 20:58:08;;;;;;;72.20;43.20;;;;;;;6.96;71.27;99700.60;447066;1267;142715;-61
2022/04/26 21:08:14;;;;;;;56.90;38.80;;;;;;;6.85;71.62;99704.98;446558;1267;142029;-64
2022/04/26 21:18:20;;;;;;;58.90;38.60;;;;;;;6.77;71.68;99708.12;435490;1268;142451;-61
2022/04/26 21:28:26;;;;;;;67.10;42.20;;;;;;;6.63;71.90;99707.32;447194;1267;143403;-60
2022/04/26 21:38:33;;;;;;;60.50;38.70;;;;;;;6.37;72.14;99713.35;445792;1267;141370;-68
2022/04/26 21:48:40;;;;;;;67.70;36.90;;;;;;;6.08;72.89;99714.64;448060;1267;142561;-68
2022/04/26 21:58:46;;;;;;;49.70;34.00;;;;;;;5.77;73.38;99719.73;448057;1265;141923;-67
2022/04/26 22:08:51;;;;;;;53.30;35.00;;;;;;;5.50;73.78;99725.88;448082;1267;142656;-67
2022/04/26 22:18:57;;;;;;;60.10;38.30;;;;;;;5.21;74.25;99733.80;443097;1267;142318;-65
2022/04/26 22:29:03;;;;;;;52.70;34.50;;;;;;;4.88;74.15;99746.69;435944;1268;142998;-65
2022/04/26 22:39:09;;;;;;;63.60;36.90;;;;;;;4.61;74.65;99745.58;440310;1269;141584;-66
2022/04/26 22:49:15;;;;;;;41.90;29.50;;;;;;;4.37;75.09;99750.61;447212;1267;202353;-66
2022/04/26 22:59:21;;;;;;;42.30;31.40;;;;;;;4.22;75.75;99754.23;448098;1267;143747;-66
2022/04/26 23:09:26;;;;;;;45.30;31.50;;;;;;;4.03;75.53;99761.32;448021;1267;142192;-66
2022/04/26 23:19:33;;;;;;;45.00;31.10;;;;;;;3.86;75.95;99770.20;442684;1270;143788;-66
2022/04/26 23:29:39;;;;;;;44.30;31.80;;;;;;;3.67;75.94;99771.33;435110;1267;142267;-64
2022/04/26 23:39:45;;;;;;;35.70;25.80;;;;;;;3.44;75.65;99770.70;431340;1268;142339;-65
2022/04/26 23:49:51;;;;;;;39.30;28.00;;;;;;;3.13;75.85;99777.69;441541;1267;143514;-66
2022/04/26 23:59:56;;;;;;;38.80;27.00;;;;;;;2.90;75.88;99770.76;447916;1265;201014;-66
